createdAt,value
2023-04-16T00:00:26.349Z,97102.56
2023-04-16T00:04:29.452Z,97099.25
2023-04-16T00:08:32.172Z,97103.59
2023-04-16T00:12:36.560Z,97101.31
2023-04-16T00:16:39.581Z,97105.00
2023-04-16T00:20:42.304Z,97106.22
2023-04-16T00:24:44.909Z,97100.84
2023-04-16T00:28:49.116Z,97109.72
2023-04-16T00:32:51.737Z,97104.34
2023-04-16T00:36:54.392Z,97107.25
2023-04-16T00:40:58.681Z,97102.09
2023-04-16T00:45:02.628Z,97099.00
2023-04-16T00:49:05.588Z,97094.66
2023-04-16T00:53:08.377Z,97100.84
2023-04-16T00:57:11.245Z,97104.34
2023-04-16T01:01:15.499Z,97113.91
2023-04-16T01:05:18.240Z,97106.03
2023-04-16T01:09:20.871Z,97108.72
2023-04-16T01:13:23.489Z,97110.38
2023-04-16T01:17:27.556Z,97112.84
2023-04-16T01:21:31.514Z,97117.66
2023-04-16T01:25:34.147Z,97119.50
2023-04-16T01:29:37.463Z,97118.50
2023-04-16T01:33:40.081Z,97118.69
2023-04-16T01:37:44.064Z,97122.00
2023-04-16T01:41:46.752Z,97125.50
2023-04-16T01:45:49.370Z,97116.81
2023-04-16T01:49:52.383Z,97130.69
2023-04-16T01:53:58.275Z,97133.19
2023-04-16T01:58:00.944Z,97123.84
2023-04-16T02:02:08.431Z,97117.03
2023-04-16T02:06:11.269Z,97126.53
2023-04-16T02:10:15.336Z,97125.91
2023-04-16T02:14:17.932Z,97132.09
2023-04-16T02:18:20.643Z,97133.13
2023-04-16T02:22:23.312Z,97146.56
2023-04-16T02:26:27.265Z,97144.88
2023-04-16T02:30:29.861Z,97143.63
2023-04-16T02:34:33.656Z,97142.56
2023-04-16T02:38:37.476Z,97139.25
2023-04-16T02:42:41.446Z,97149.81
2023-04-16T02:46:44.062Z,97162.78
2023-04-16T02:50:46.642Z,97159.28
2023-04-16T02:54:49.484Z,97160.75
2023-04-16T02:58:53.686Z,97167.16
2023-04-16T03:02:56.433Z,97167.16
2023-04-16T03:06:59.402Z,97172.69
2023-04-16T03:11:02.068Z,97170.84
2023-04-16T03:15:07.126Z,97157.63
2023-04-16T03:19:10.002Z,97167.53
2023-04-16T03:23:12.973Z,97167.34
2023-04-16T03:27:15.558Z,97175.19
2023-04-16T03:31:19.558Z,97164.66
2023-04-16T03:35:22.171Z,97176.22
2023-04-16T03:39:24.870Z,97178.25
2023-04-16T03:43:27.472Z,97190.25
2023-04-16T03:47:31.511Z,97179.28
2023-04-16T03:51:34.195Z,97174.47
2023-04-16T03:55:36.932Z,97180.25
2023-04-16T03:59:39.557Z,97187.47
2023-04-16T04:03:43.712Z,97196.53
2023-04-16T04:07:46.527Z,97198.78
2023-04-16T04:11:49.142Z,97202.50
2023-04-16T04:15:52.086Z,97197.69
2023-04-16T04:20:01.297Z,97207.59
2023-04-16T04:24:04.678Z,97208.03
2023-04-16T04:28:07.318Z,97213.59
2023-04-16T04:32:09.951Z,97210.28
2023-04-16T04:36:13.977Z,97215.47
2023-04-16T04:40:16.830Z,97225.38
2023-04-16T04:44:19.445Z,97230.34
2023-04-16T04:48:26.454Z,97233.13
2023-04-16T04:52:30.414Z,97229.38
2023-04-16T04:56:33.048Z,97243.72
2023-04-16T05:00:36.847Z,97246.78
2023-04-16T05:04:39.527Z,97246.84
2023-04-16T05:08:43.503Z,97253.31
2023-04-16T05:12:48.926Z,97251.28
2023-04-16T05:16:51.795Z,97258.75
2023-04-16T05:20:54.468Z,97256.88
2023-04-16T05:24:58.456Z,97266.22
2023-04-16T05:29:01.055Z,97270.66
2023-04-16T05:33:03.789Z,97266.41
2023-04-16T05:37:06.580Z,97274.53
2023-04-16T05:41:10.653Z,97277.38
2023-04-16T05:45:13.548Z,97285.13
2023-04-16T05:49:16.401Z,97287.09
2023-04-16T05:53:19.962Z,97292.22
2023-04-16T05:57:23.941Z,97292.47
2023-04-16T06:01:26.586Z,97295.22
2023-04-16T06:05:29.866Z,97294.00
2023-04-16T06:09:32.513Z,97296.19
2023-04-16T06:13:36.750Z,97304.81
2023-04-16T06:17:39.608Z,97310.31
2023-04-16T06:21:42.261Z,97308.97
2023-04-16T06:25:44.913Z,97304.38
2023-04-16T06:29:49.352Z,97304.84
2023-04-16T06:33:51.990Z,97308.75
2023-04-16T06:37:54.621Z,97306.28
2023-04-16T06:41:57.522Z,97311.38
2023-04-16T06:46:01.722Z,97311.66
2023-04-16T06:50:04.562Z,97306.13
2023-04-16T06:54:07.220Z,97318.84
2023-04-16T06:58:09.860Z,97321.41
2023-04-16T07:02:13.893Z,97326.44
2023-04-16T07:06:16.515Z,97332.25
2023-04-16T07:10:19.140Z,97331.00
2023-04-16T07:14:21.870Z,97333.50
2023-04-16T07:18:25.927Z,97327.13
2023-04-16T07:22:28.591Z,97329.41
2023-04-16T07:26:31.259Z,97336.03
2023-04-16T07:30:35.677Z,97336.22
2023-04-16T07:34:39.690Z,97340.34
2023-04-16T07:38:42.328Z,97339.09
2023-04-16T07:42:45.553Z,97340.34
2023-04-16T07:46:48.237Z,97341.22
2023-04-16T07:50:52.318Z,97344.78
2023-04-16T07:54:54.938Z,97354.50
2023-04-16T07:59:02.902Z,97349.34
2023-04-16T08:03:11.109Z,97357.03
2023-04-16T08:07:15.532Z,97362.00
2023-04-16T08:11:18.164Z,97370.47
2023-04-16T08:15:21.065Z,97371.72
2023-04-16T08:19:23.724Z,97372.53
2023-04-16T08:23:27.771Z,97368.41
2023-04-16T08:27:30.414Z,97380.41
2023-04-16T08:31:33.817Z,97389.72
2023-04-16T08:35:36.503Z,97386.56
2023-04-16T08:39:40.551Z,97386.56
2023-04-16T08:43:46.426Z,97397.78
2023-04-16T08:47:50.386Z,97392.59
2023-04-16T08:51:54.300Z,97411.47
2023-04-16T08:56:03.686Z,97405.06
2023-04-16T09:00:08.903Z,97413.59
2023-04-16T09:04:12.206Z,97413.00
2023-04-16T09:08:15.083Z,97418.66
2023-04-16T09:12:19.112Z,97421.78
2023-04-16T09:16:22.227Z,97428.66
2023-04-16T09:20:24.898Z,97431.13
2023-04-16T09:24:27.870Z,97435.13
2023-04-16T09:28:42.061Z,97439.72
2023-04-16T09:32:44.723Z,97432.47
2023-04-16T09:36:47.634Z,97435.13
2023-04-16T09:41:07.736Z,97438.47
2023-04-16T09:45:13.251Z,97434.97
2023-04-16T09:49:19.260Z,97437.06
2023-04-16T09:53:25.732Z,97445.97
2023-04-16T09:57:28.443Z,97433.13
2023-04-16T10:01:33.063Z,97435.59
2023-04-16T10:05:35.794Z,97439.69
2023-04-16T10:09:39.099Z,97441.13
2023-04-16T10:13:41.758Z,97445.00
2023-04-16T10:17:46.539Z,97439.09
2023-04-16T10:21:49.371Z,97440.91
2023-04-16T10:25:54.158Z,97449.34
2023-04-16T10:29:58.468Z,97447.06
2023-04-16T10:34:03.476Z,97450.84
2023-04-16T10:38:25.317Z,97450.88
2023-04-16T10:42:28.459Z,97444.25
2023-04-16T10:46:34.535Z,97451.31
2023-04-16T10:50:39.709Z,97449.56
2023-04-16T10:54:42.419Z,97455.28
2023-04-16T10:58:45.033Z,97455.88
2023-04-16T11:02:47.788Z,97452.50
2023-04-16T11:07:04.070Z,97445.16
2023-04-16T11:11:07.227Z,97450.72
2023-04-16T11:15:11.833Z,97457.81
2023-04-16T11:19:18.322Z,97445.97
2023-04-16T11:23:22.426Z,97451.03
2023-04-16T11:27:25.558Z,97449.81
2023-04-16T11:31:28.400Z,97455.63
2023-04-16T11:35:31.209Z,97450.78
2023-04-16T11:39:35.163Z,97451.19
2023-04-16T11:43:38.217Z,97456.97
2023-04-16T11:47:46.029Z,97456.09
2023-04-16T11:51:49.100Z,97456.78
2023-04-16T11:55:53.099Z,97463.09
2023-04-16T12:00:02.121Z,97459.31
2023-04-16T12:04:06.776Z,97465.44
2023-04-16T12:08:11.367Z,97464.91
2023-04-16T12:12:32.108Z,97462.53
2023-04-16T12:16:35.866Z,97470.50
2023-04-16T12:20:42.189Z,97472.88
2023-04-16T12:24:45.026Z,97466.69
2023-04-16T12:28:49.034Z,97462.84
2023-04-16T12:32:53.366Z,97466.06
2023-04-16T12:37:07.314Z,97474.19
2023-04-16T12:41:09.910Z,97472.38
2023-04-16T12:45:13.884Z,97467.19
2023-04-16T12:49:16.664Z,97468.41
2023-04-16T12:53:19.333Z,97470.81
2023-04-16T12:57:23.840Z,97472.09
2023-04-16T13:01:27.873Z,97470.41
2023-04-16T13:05:31.180Z,97474.78
2023-04-16T13:09:33.919Z,97473.06
2023-04-16T13:13:36.643Z,97472.56
2023-04-16T13:17:40.673Z,97471.22
2023-04-16T13:21:43.401Z,97469.38
2023-04-16T13:25:46.144Z,97479.34
2023-04-16T13:29:49.188Z,97467.13
2023-04-16T13:33:53.234Z,97466.47
2023-04-16T13:37:55.849Z,97476.75
2023-04-16T13:41:58.453Z,97465.19
2023-04-16T13:46:01.978Z,97466.47
2023-04-16T13:50:06.836Z,97476.13
2023-04-16T13:54:09.415Z,97474.63
2023-04-16T13:58:12.083Z,97472.09
2023-04-16T14:02:15.197Z,97471.22
2023-04-16T14:06:19.163Z,97468.75
2023-04-16T14:10:22.245Z,97474.13
2023-04-16T14:14:25.904Z,97470.19
2023-04-16T14:18:28.478Z,97468.50
2023-04-16T14:22:32.449Z,97468.19
2023-04-16T14:26:35.146Z,97467.00
2023-04-16T14:30:37.748Z,97469.72
2023-04-16T14:34:40.389Z,97460.09
2023-04-16T14:38:44.478Z,97466.69
2023-04-16T14:42:47.115Z,97454.91
2023-04-16T14:46:49.873Z,97457.78
2023-04-16T14:50:52.608Z,97471.38
2023-04-16T14:54:56.610Z,97459.66
2023-04-16T14:58:59.279Z,97470.56
2023-04-16T15:03:02.153Z,97478.38
2023-04-16T15:07:04.977Z,97489.38
2023-04-16T15:11:08.982Z,97488.03
2023-04-16T15:15:12.073Z,97482.88
2023-04-16T15:19:14.882Z,97481.94
2023-04-16T15:23:17.505Z,97487.25
2023-04-16T15:27:21.489Z,97485.88
2023-04-16T15:31:24.218Z,97487.66
2023-04-16T15:35:27.084Z,97493.44
2023-04-16T15:39:30.083Z,97496.44
2023-04-16T15:43:34.418Z,97496.56
2023-04-16T15:47:39.540Z,97507.31
2023-04-16T15:51:43.850Z,97504.88
2023-04-16T15:55:46.542Z,97503.13
2023-04-16T16:00:05.963Z,97516.47
2023-04-16T16:04:09.917Z,97518.69
2023-04-16T16:08:13.096Z,97515.78
2023-04-16T16:12:15.704Z,97510.28
2023-04-16T16:16:19.767Z,97519.00
2023-04-16T16:20:23.403Z,97520.94
2023-04-16T16:24:26.499Z,97520.09
2023-04-16T16:28:29.080Z,97521.09
2023-04-16T16:32:33.075Z,97522.78
2023-04-16T16:36:36.838Z,97522.72
2023-04-16T16:40:39.603Z,97521.59
2023-04-16T16:44:42.235Z,97523.88
2023-04-16T16:48:46.463Z,97521.16
2023-04-16T16:52:49.120Z,97523.50
2023-04-16T16:56:52.083Z,97530.94
2023-04-16T17:00:54.866Z,97525.84
2023-04-16T17:04:59.912Z,97529.75
2023-04-16T17:09:04.081Z,97538.28
2023-04-16T17:13:07.058Z,97539.09
2023-04-16T17:17:09.991Z,97539.78
2023-04-16T17:21:15.922Z,97543.38
2023-04-16T17:25:19.384Z,97549.06
2023-04-16T17:29:25.916Z,97556.63
2023-04-16T17:33:29.358Z,97553.22
2023-04-16T17:37:33.950Z,97555.38
2023-04-16T17:41:37.059Z,97560.25
2023-04-16T17:45:40.099Z,97567.97
2023-04-16T17:49:42.954Z,97568.66
2023-04-16T17:53:46.964Z,97570.75
2023-04-16T17:57:50.037Z,97586.19
2023-04-16T18:01:52.971Z,97584.94
2023-04-16T18:05:55.865Z,97583.50
2023-04-16T18:09:59.880Z,97583.94
2023-04-16T18:14:02.491Z,97599.94
2023-04-16T18:18:05.616Z,97599.53
2023-04-16T18:22:08.331Z,97609.69
2023-04-16T18:26:12.860Z,97606.16
2023-04-16T18:30:23.436Z,97611.13
2023-04-16T18:34:29.689Z,97624.81
2023-04-16T18:38:32.366Z,97624.16
2023-04-16T18:42:36.584Z,97623.06
2023-04-16T18:46:39.289Z,97626.34
2023-04-16T18:50:41.966Z,97625.28
2023-04-16T18:54:44.715Z,97630.03
2023-04-16T18:58:49.387Z,97634.91
2023-04-16T19:02:52.149Z,97634.41
2023-04-16T19:06:54.888Z,97637.84
2023-04-16T19:10:57.542Z,97641.75
2023-04-16T19:15:01.612Z,97650.19
2023-04-16T19:19:04.347Z,97643.91
2023-04-16T19:23:09.097Z,97649.09
2023-04-16T19:27:11.861Z,97654.56
2023-04-16T19:31:15.978Z,97648.16
2023-04-16T19:35:18.757Z,97653.25
2023-04-16T19:39:21.468Z,97650.22
2023-04-16T19:43:24.248Z,97654.31
2023-04-16T19:47:28.445Z,97666.56
2023-04-16T19:51:31.307Z,97659.44
2023-04-16T19:55:33.934Z,97657.59
2023-04-16T19:59:38.047Z,97665.47
2023-04-16T20:03:42.166Z,97676.63
2023-04-16T20:07:44.879Z,97669.38
2023-04-16T20:11:47.763Z,97675.47
2023-04-16T20:15:52.789Z,97679.72
2023-04-16T20:20:00.820Z,97674.16
2023-04-16T20:24:03.735Z,97676.47
2023-04-16T20:28:06.421Z,97681.47
2023-04-16T20:32:09.180Z,97682.28
2023-04-16T20:36:13.345Z,97677.03
2023-04-16T20:40:16.997Z,97681.41
2023-04-16T20:44:26.030Z,97676.03
2023-04-16T20:48:28.766Z,97671.09
2023-04-16T20:52:33.033Z,97675.44
2023-04-16T20:56:35.714Z,97673.56
2023-04-16T21:00:38.410Z,97668.97
2023-04-16T21:04:41.193Z,97672.88
2023-04-16T21:08:45.968Z,97671.78
2023-04-16T21:12:48.747Z,97669.91
2023-04-16T21:16:51.399Z,97677.50
2023-04-16T21:20:54.721Z,97680.22
2023-04-16T21:24:58.822Z,97681.44
2023-04-16T21:29:01.543Z,97683.94
2023-04-16T21:33:04.454Z,97674.56
2023-04-16T21:37:08.303Z,97672.72
2023-04-16T21:41:12.301Z,97678.09
2023-04-16T21:45:15.503Z,97678.28
2023-04-16T21:49:18.095Z,97677.56
2023-04-16T21:53:20.710Z,97672.06
2023-04-16T21:57:24.748Z,97679.50
2023-04-16T22:01:27.484Z,97667.09
2023-04-16T22:05:31.618Z,97676.81
2023-04-16T22:09:34.228Z,97674.50
2023-04-16T22:13:42.040Z,97667.09
2023-04-16T22:17:45.511Z,97674.41
2023-04-16T22:21:48.384Z,97675.63
2023-04-16T22:25:51.763Z,97672.06
2023-04-16T22:29:55.879Z,97672.72
2023-04-16T22:33:58.476Z,97669.38
2023-04-16T22:38:01.088Z,97666.25
2023-04-16T22:42:03.749Z,97654.22
2023-04-16T22:46:08.326Z,97653.28
2023-04-16T22:50:12.567Z,97658.03
2023-04-16T22:54:15.215Z,97657.72
2023-04-16T22:58:17.938Z,97653.56
2023-04-16T23:02:22.373Z,97660.16
2023-04-16T23:06:25.085Z,97654.78
2023-04-16T23:10:27.792Z,97661.16
2023-04-16T23:14:31.531Z,97661.34
2023-04-16T23:18:36.638Z,97660.72
2023-04-16T23:22:39.319Z,97651.00
2023-04-16T23:26:42.125Z,97660.22
2023-04-16T23:30:44.711Z,97645.50
2023-04-16T23:34:48.665Z,97650.41
2023-04-16T23:38:51.242Z,97649.13
2023-04-16T23:42:53.869Z,97651.53
2023-04-16T23:46:56.537Z,97650.88
2023-04-16T23:51:00.564Z,97639.84
2023-04-16T23:55:03.276Z,97642.19
2023-04-16T23:59:06.308Z,97642.19
